createdAt,value
2018-12-23T04:41:30.852Z,6.10
2018-12-23T04:44:04.428Z,6.10
2018-12-23T04:46:40.100Z,6.10
2018-12-23T04:49:10.840Z,6.20
2018-12-23T04:51:46.168Z,6.20
2018-12-23T04:54:18.012Z,6.20
2018-12-23T04:56:48.141Z,6.20
2018-12-23T04:59:19.692Z,6.20
2018-12-23T05:01:48.780Z,6.20
2018-12-23T05:04:18.508Z,6.10
2018-12-23T05:06:54.228Z,6.10
2018-12-23T05:09:23.081Z,6.10
2018-12-23T05:11:51.889Z,6.10
2018-12-23T05:14:30.502Z,6.10
2018-12-23T05:17:06.700Z,6.10
2018-12-23T05:19:48.732Z,6.10
2018-12-23T05:22:18.428Z,6.10
2018-12-23T05:24:53.356Z,6.10
2018-12-23T05:27:43.200Z,6.10
2018-12-23T05:30:12.028Z,6.10
2018-12-23T05:32:40.877Z,6.00
2018-12-23T05:35:15.177Z,5.90
2018-12-23T05:37:44.876Z,5.80
2018-12-23T05:40:13.772Z,5.70
2018-12-23T05:42:43.512Z,5.60
2018-12-23T05:45:12.309Z,5.60
2018-12-23T05:47:45.912Z,5.60
2018-12-23T05:50:14.801Z,5.60
2018-12-23T05:52:48.164Z,5.60
2018-12-23T05:55:24.653Z,5.60
2018-12-23T05:57:53.689Z,5.60
2018-12-23T06:00:44.348Z,5.50
2018-12-23T06:03:24.537Z,5.40
2018-12-23T06:05:53.532Z,5.40
2018-12-23T06:08:52.732Z,5.30
2018-12-23T06:11:32.571Z,5.40
2018-12-23T06:14:04.565Z,5.40
2018-12-23T06:16:39.828Z,5.40
2018-12-23T06:19:15.568Z,5.40
2018-12-23T06:21:44.364Z,5.40
2018-12-23T06:24:15.068Z,5.40
2018-12-23T06:27:10.360Z,5.30
2018-12-23T06:29:40.160Z,5.40
2018-12-23T06:32:13.536Z,5.40
2018-12-23T06:34:43.255Z,5.40
2018-12-23T06:37:13.053Z,5.30
2018-12-23T06:39:43.920Z,5.30
2018-12-23T06:42:19.051Z,5.30
2018-12-23T06:44:53.719Z,5.40
2018-12-23T06:47:33.275Z,5.40
2018-12-23T06:50:06.284Z,5.40
2018-12-23T06:52:36.738Z,5.40
2018-12-23T06:55:05.655Z,5.30
2018-12-23T06:57:41.947Z,5.30
2018-12-23T07:00:13.784Z,5.30
2018-12-23T07:02:42.624Z,5.30
2018-12-23T07:05:32.676Z,5.30
2018-12-23T07:08:14.463Z,5.30
2018-12-23T07:10:49.236Z,5.30
2018-12-23T07:13:21.468Z,5.30
2018-12-23T07:15:51.200Z,5.30
2018-12-23T07:18:21.908Z,5.30
2018-12-23T07:24:18.526Z,5.40
2018-12-23T07:26:53.700Z,5.50
2018-12-23T07:29:23.960Z,5.60
2018-12-23T07:31:55.068Z,5.60
2018-12-23T07:34:26.328Z,5.70
2018-12-23T07:36:56.820Z,5.70
2018-12-23T07:39:27.052Z,5.80
2018-12-23T07:41:57.500Z,5.80
2018-12-23T07:44:27.757Z,5.80
2018-12-23T07:47:01.452Z,5.90
2018-12-23T07:49:37.653Z,5.90
2018-12-23T07:52:08.787Z,6.00
2018-12-23T07:54:39.020Z,6.00
2018-12-23T07:57:09.227Z,6.00
2018-12-23T07:59:40.720Z,6.10
2018-12-23T08:02:10.992Z,6.10
2018-12-23T08:04:41.251Z,6.10
2018-12-23T08:07:11.467Z,6.10
2018-12-23T08:09:41.671Z,6.10
2018-12-23T08:12:12.008Z,6.10
2018-12-23T08:14:51.139Z,6.10
2018-12-23T08:17:25.275Z,6.10
2018-12-23T08:19:55.468Z,6.10
2018-12-23T08:22:25.715Z,6.10
2018-12-23T08:24:57.140Z,6.10
2018-12-23T08:27:28.511Z,6.10
2018-12-23T08:29:59.713Z,6.20
2018-12-23T08:32:35.671Z,6.20
2018-12-23T08:35:07.732Z,6.20
2018-12-23T08:37:44.565Z,6.30
2018-12-23T08:40:12.956Z,6.30
2018-12-23T08:42:43.175Z,6.30
2018-12-23T08:45:26.749Z,6.40
2018-12-23T08:47:57.128Z,6.40
2018-12-23T08:50:32.432Z,6.30
2018-12-23T08:53:03.578Z,6.30
2018-12-23T08:55:37.737Z,6.20
2018-12-23T08:58:08.892Z,6.20
2018-12-23T09:00:39.143Z,6.10
2018-12-23T09:03:18.679Z,6.10
2018-12-23T09:05:45.216Z,6.10
2018-12-23T09:08:23.763Z,6.20
2018-12-23T09:10:54.948Z,6.20
2018-12-23T09:13:31.004Z,6.20
2018-12-23T09:16:01.191Z,6.20
2018-12-23T09:18:48.743Z,6.30
2018-12-23T09:21:21.085Z,6.40
2018-12-23T09:23:51.285Z,6.40
2018-12-23T09:26:22.420Z,6.50
2018-12-23T09:28:53.540Z,6.50
2018-12-23T09:31:24.755Z,6.70
2018-12-23T09:33:55.018Z,6.80
2018-12-23T09:36:29.384Z,6.80
2018-12-23T09:39:00.551Z,6.90
2018-12-23T09:41:30.784Z,6.90
2018-12-23T09:44:00.979Z,6.90
2018-12-23T09:46:38.481Z,6.90
2018-12-23T09:49:08.679Z,6.90
2018-12-23T09:51:39.837Z,7.00
2018-12-23T09:54:10.076Z,7.10
2018-12-23T09:56:42.251Z,7.10
2018-12-23T09:59:13.384Z,7.10
2018-12-23T10:01:43.631Z,7.00
2018-12-23T10:04:24.487Z,7.00
2018-12-23T10:06:59.803Z,6.90
2018-12-23T10:09:31.875Z,6.90
2018-12-23T10:12:04.044Z,6.80
2018-12-23T10:14:36.287Z,6.90
2018-12-23T10:17:07.343Z,6.90
2018-12-23T10:19:37.996Z,7.00
2018-12-23T10:22:12.006Z,7.20
2018-12-23T10:24:49.032Z,7.30
2018-12-23T10:27:28.212Z,7.40
2018-12-23T10:30:02.592Z,7.60
2018-12-23T10:32:34.704Z,7.60
2018-12-23T10:35:10.705Z,7.70
2018-12-23T10:37:40.900Z,7.70
2018-12-23T10:40:12.036Z,7.80
2018-12-23T10:42:42.256Z,7.90
2018-12-23T10:45:12.448Z,8.00
2018-12-23T10:47:43.632Z,8.10
2018-12-23T10:50:15.804Z,8.10
2018-12-23T10:52:46.857Z,8.10
2018-12-23T10:55:18.120Z,8.10
2018-12-23T10:57:49.229Z,8.10
2018-12-23T11:00:20.414Z,8.10
2018-12-23T11:02:53.120Z,8.00
2018-12-23T11:05:24.208Z,7.90
2018-12-23T11:07:54.388Z,7.80
2018-12-23T11:10:26.472Z,7.70
2018-12-23T11:12:58.664Z,7.60
2018-12-23T11:15:29.948Z,7.50
2018-12-23T11:18:02.652Z,7.50
2018-12-23T11:20:32.878Z,7.50
2018-12-23T11:23:08.068Z,7.60
2018-12-23T11:25:46.976Z,7.60
2018-12-23T11:28:17.176Z,7.70
2018-12-23T11:30:47.441Z,7.80
2018-12-23T11:33:17.620Z,7.80
2018-12-23T11:35:48.744Z,7.80
2018-12-23T11:38:19.604Z,7.90
2018-12-23T11:41:10.690Z,7.80
2018-12-23T11:43:43.384Z,7.80
2018-12-23T11:46:13.625Z,7.90
2018-12-23T11:48:43.784Z,7.90
2018-12-23T11:51:14.174Z,7.90
2018-12-23T11:53:45.301Z,8.00
2018-12-23T11:56:15.537Z,8.00
2018-12-23T11:58:47.660Z,7.90
2018-12-23T12:01:17.908Z,7.80
2018-12-23T12:03:53.925Z,7.60
2018-12-23T12:06:26.088Z,7.50
2018-12-23T12:08:56.424Z,7.40
2018-12-23T12:11:37.492Z,7.30
2018-12-23T12:14:07.807Z,7.20
2018-12-23T12:16:38.887Z,7.20
2018-12-23T12:19:09.080Z,7.20
2018-12-23T12:21:39.418Z,7.10
2018-12-23T12:24:12.269Z,7.10
2018-12-23T12:26:44.463Z,7.00
2018-12-23T12:29:16.592Z,7.00
2018-12-23T12:31:51.748Z,7.00
2018-12-23T12:34:21.918Z,7.00
2018-12-23T12:36:53.068Z,7.00
2018-12-23T12:39:30.405Z,7.10
2018-12-23T12:42:02.557Z,7.10
2018-12-23T12:44:32.733Z,7.20
2018-12-23T12:47:03.829Z,7.20
2018-12-23T12:49:34.017Z,7.20
2018-12-23T12:52:04.213Z,7.20
2018-12-23T12:54:36.345Z,7.20
2018-12-23T12:57:06.549Z,7.20
2018-12-23T12:59:39.438Z,7.20
2018-12-23T13:02:15.646Z,7.30
2018-12-23T13:04:45.825Z,7.30
2018-12-23T13:07:16.034Z,7.30
2018-12-23T13:09:46.517Z,7.30
2018-12-23T13:12:16.726Z,7.30
2018-12-23T13:14:46.981Z,7.30
2018-12-23T13:17:18.033Z,7.30
2018-12-23T13:19:50.246Z,7.20
2018-12-23T13:22:20.494Z,7.10
2018-12-23T13:24:50.685Z,7.00
2018-12-23T13:27:20.981Z,7.00
2018-12-23T13:29:53.113Z,6.90
2018-12-23T13:32:24.461Z,6.90
2018-12-23T13:34:56.611Z,6.90
2018-12-23T13:37:27.701Z,6.90
2018-12-23T13:40:01.561Z,6.90
2018-12-23T13:43:06.706Z,6.90
2018-12-23T13:46:20.833Z,6.90
2018-12-23T13:49:29.509Z,6.90
2018-12-23T13:52:24.417Z,6.90
2018-12-23T13:55:40.574Z,6.90
2018-12-23T13:58:44.901Z,6.90
2018-12-23T14:01:53.020Z,6.80
2018-12-23T14:04:39.553Z,6.80
2018-12-23T14:07:27.865Z,6.80
2018-12-23T14:10:39.199Z,6.80
2018-12-23T14:13:09.766Z,6.80
2018-12-23T14:15:40.870Z,6.70
2018-12-23T14:18:12.109Z,6.60
2018-12-23T14:20:42.412Z,6.50
2018-12-23T14:23:19.097Z,6.50
2018-12-23T14:25:49.309Z,6.40
2018-12-23T14:28:21.652Z,6.30
2018-12-23T14:30:53.816Z,6.30
2018-12-23T14:33:30.062Z,6.30
2018-12-23T14:36:00.453Z,6.30
2018-12-23T14:38:42.640Z,6.30
2018-12-23T14:41:12.865Z,6.30
2018-12-23T14:43:47.994Z,6.30
2018-12-23T14:46:18.181Z,6.30
2018-12-23T14:48:48.409Z,6.30
2018-12-23T14:51:21.761Z,6.40
2018-12-23T14:53:52.993Z,6.40
2018-12-23T14:56:23.165Z,6.40
2018-12-23T14:59:00.370Z,6.40
2018-12-23T15:01:34.138Z,6.40
2018-12-23T15:04:04.349Z,6.40
2018-12-23T15:06:35.465Z,6.40
2018-12-23T15:09:07.322Z,6.40
2018-12-23T15:11:37.513Z,6.40
2018-12-23T15:14:09.753Z,6.40
2018-12-23T15:16:40.050Z,6.40
2018-12-23T15:19:10.310Z,6.40
2018-12-23T15:21:43.170Z,6.30
2018-12-23T15:24:15.387Z,6.30
2018-12-23T15:26:52.114Z,6.30
2018-12-23T15:29:24.455Z,6.30
2018-12-23T15:31:55.834Z,6.30
2018-12-23T15:34:26.225Z,6.30
2018-12-23T15:36:56.515Z,6.30
2018-12-23T15:39:42.513Z,6.30
2018-12-23T15:42:14.582Z,6.20
2018-12-23T15:44:46.794Z,6.20
2018-12-23T15:47:17.050Z,6.20
2018-12-23T15:49:52.509Z,6.20
2018-12-23T15:52:25.855Z,6.10
2018-12-23T15:54:56.146Z,6.10
2018-12-23T15:57:26.534Z,6.10
2018-12-23T15:59:56.802Z,6.10
2018-12-23T16:02:28.126Z,6.10
2018-12-23T16:05:01.380Z,6.10
2018-12-23T16:07:32.730Z,6.10
2018-12-23T16:10:03.116Z,6.10
2018-12-23T16:12:34.586Z,6.10
2018-12-23T16:15:11.754Z,6.00
2018-12-23T16:21:19.742Z,6.00
2018-12-23T16:23:52.065Z,6.00
2018-12-23T16:26:28.190Z,6.00
2018-12-23T16:29:00.190Z,6.00
2018-12-23T16:31:30.276Z,6.00
2018-12-23T16:34:10.766Z,6.00
2018-12-23T16:36:42.810Z,6.00
2018-12-23T16:39:14.824Z,6.00
2018-12-23T16:41:47.985Z,6.10
2018-12-23T16:44:18.371Z,6.00
2018-12-23T16:46:50.438Z,6.00
2018-12-23T16:49:23.490Z,6.00
2018-12-23T16:51:53.670Z,6.00
2018-12-23T16:54:23.985Z,6.00
2018-12-23T16:56:57.766Z,5.90
2018-12-23T16:59:30.838Z,5.90
2018-12-23T17:02:05.067Z,5.80
2018-12-23T17:04:36.134Z,5.80
2018-12-23T17:07:06.503Z,5.80
2018-12-23T17:09:36.674Z,5.80
2018-12-23T17:12:07.074Z,5.90
2018-12-23T17:14:42.226Z,5.90
2018-12-23T17:17:22.587Z,5.90
2018-12-23T17:20:00.966Z,5.90
2018-12-23T17:22:35.651Z,5.90
2018-12-23T17:25:06.820Z,5.80
2018-12-23T17:27:37.014Z,5.80
2018-12-23T17:30:13.039Z,5.80
2018-12-23T17:32:48.122Z,5.80
2018-12-23T17:35:20.162Z,5.80
2018-12-23T17:37:52.281Z,5.80
2018-12-23T17:40:24.345Z,5.80
2018-12-23T17:42:57.102Z,5.80
2018-12-23T17:45:27.318Z,5.80
2018-12-23T17:48:02.409Z,5.70
2018-12-23T17:50:33.642Z,5.70
2018-12-23T17:53:03.734Z,5.70
2018-12-23T17:55:37.122Z,5.70
2018-12-23T17:58:08.690Z,5.70
2018-12-23T18:00:44.901Z,5.70
2018-12-23T18:03:18.127Z,5.70
2018-12-23T18:05:50.134Z,5.70
2018-12-23T18:08:21.174Z,5.70
2018-12-23T18:10:55.522Z,5.70
2018-12-23T18:13:26.709Z,5.80
2018-12-23T18:15:58.917Z,5.70
2018-12-23T18:18:36.542Z,5.70
2018-12-23T18:21:06.742Z,5.70
2018-12-23T18:23:36.858Z,5.70
2018-12-23T18:26:07.015Z,5.70
2018-12-23T18:28:47.098Z,5.60
2018-12-23T18:31:18.230Z,5.60
2018-12-23T18:33:48.567Z,5.60
2018-12-23T18:36:21.402Z,5.60
2018-12-23T18:38:57.342Z,5.60
2018-12-23T18:41:27.914Z,5.70
2018-12-23T18:43:57.998Z,5.60
2018-12-23T18:46:35.422Z,5.60
2018-12-23T18:49:11.315Z,5.60
2018-12-23T18:51:41.405Z,5.60
2018-12-23T18:54:18.024Z,5.60
2018-12-23T18:56:50.287Z,5.60
2018-12-23T18:59:20.667Z,5.60
2018-12-23T19:01:51.155Z,5.60
2018-12-23T19:04:23.215Z,5.60
2018-12-23T19:06:53.375Z,5.60
2018-12-23T19:09:24.931Z,5.70
2018-12-23T19:12:25.338Z,5.70
2018-12-23T19:15:06.173Z,5.70
2018-12-23T19:18:16.455Z,5.70
2018-12-23T19:21:25.447Z,5.80
2018-12-23T19:24:17.515Z,5.80
2018-12-23T19:26:55.012Z,5.90
2018-12-23T19:29:33.443Z,6.00
2018-12-23T19:32:23.951Z,6.10
2018-12-23T19:35:41.039Z,6.10
2018-12-23T19:38:44.646Z,6.20
2018-12-23T19:41:38.080Z,6.30
2018-12-23T19:44:37.887Z,6.30
2018-12-23T19:47:35.214Z,6.30
2018-12-23T19:50:20.339Z,6.40
2018-12-23T19:53:20.786Z,6.40
2018-12-23T19:56:13.796Z,6.50
2018-12-23T19:59:08.015Z,6.50
2018-12-23T20:02:15.759Z,6.60
2018-12-23T20:05:05.415Z,6.60
2018-12-23T20:08:00.863Z,6.70
2018-12-23T20:11:10.367Z,6.70
2018-12-23T20:13:56.839Z,6.80
2018-12-23T20:17:18.149Z,6.80
2018-12-23T20:20:34.471Z,6.90
2018-12-23T20:23:43.939Z,7.00
2018-12-23T20:26:47.243Z,7.00
2018-12-23T20:29:30.484Z,7.00
2018-12-23T20:32:20.167Z,7.10
2018-12-23T20:35:16.471Z,7.10
2018-12-23T20:38:09.299Z,7.20
2018-12-23T20:41:21.695Z,7.20
2018-12-23T20:44:14.475Z,7.20
2018-12-23T20:47:07.360Z,7.30
2018-12-23T20:49:56.708Z,7.30
2018-12-23T20:52:43.199Z,7.40
2018-12-23T20:55:28.293Z,7.40
2018-12-23T20:58:16.455Z,7.40
2018-12-23T21:01:31.447Z,7.50
2018-12-23T21:04:33.723Z,7.50
2018-12-23T21:07:14.076Z,7.60
2018-12-23T21:10:16.427Z,7.60
2018-12-23T21:13:04.946Z,7.70
2018-12-23T21:16:09.619Z,7.70
2018-12-23T21:19:11.829Z,7.80
2018-12-23T21:22:02.819Z,7.90
2018-12-23T21:25:15.175Z,7.90
2018-12-23T21:28:01.460Z,8.00
2018-12-23T21:30:53.826Z,8.10
2018-12-23T21:33:58.527Z,8.20
2018-12-23T21:36:49.484Z,8.30
2018-12-23T21:39:54.650Z,8.30
2018-12-23T21:43:20.466Z,8.40
2018-12-23T21:46:13.274Z,8.40
2018-12-23T21:49:12.213Z,8.50
2018-12-23T21:52:39.831Z,8.60
2018-12-23T21:55:27.630Z,8.60
2018-12-23T21:58:07.554Z,8.70
2018-12-23T22:00:49.254Z,8.80
2018-12-23T22:03:35.897Z,8.80
2018-12-23T22:06:53.090Z,8.90
2018-12-23T22:10:02.724Z,9.00
2018-12-23T22:12:46.306Z,9.10
2018-12-23T22:15:16.386Z,9.10
2018-12-23T22:17:46.466Z,9.20
2018-12-23T22:20:16.546Z,9.30
2018-12-23T22:22:46.656Z,9.40
2018-12-23T22:25:16.722Z,9.40
2018-12-23T22:27:46.842Z,9.50
2018-12-23T22:30:18.678Z,9.50
2018-12-23T22:32:49.738Z,9.50
2018-12-23T22:35:20.766Z,9.50
2018-12-23T22:37:50.886Z,9.60
2018-12-23T22:40:21.055Z,9.60
2018-12-23T22:42:55.382Z,9.60
2018-12-23T22:45:25.727Z,9.60
2018-12-23T22:47:56.149Z,9.70
2018-12-23T22:50:26.532Z,9.70
2018-12-23T22:52:56.680Z,9.70
2018-12-23T22:55:28.074Z,9.80
2018-12-23T22:57:58.226Z,9.80
2018-12-23T23:00:45.733Z,9.80
2018-12-23T23:03:16.756Z,9.90
2018-12-23T23:05:48.839Z,9.90
2018-12-23T23:08:18.949Z,9.90
2018-12-23T23:10:50.239Z,9.90
2018-12-23T23:13:21.364Z,9.90
2018-12-23T23:15:53.007Z,9.90
2018-12-23T23:18:26.795Z,10.00
2018-12-23T23:20:58.167Z,10.00
2018-12-23T23:23:28.515Z,10.00
2018-12-23T23:25:58.655Z,10.00
2018-12-23T23:28:30.927Z,10.00
2018-12-23T23:31:01.323Z,10.00
2018-12-23T23:33:37.402Z,10.10
2018-12-23T23:36:07.595Z,10.00
2018-12-23T23:38:37.776Z,10.10
2018-12-23T23:41:08.766Z,10.10
2018-12-23T23:43:38.927Z,10.10
2018-12-23T23:46:09.013Z,10.10
2018-12-23T23:48:47.142Z,10.10
2018-12-23T23:51:17.400Z,10.10
2018-12-23T23:53:47.506Z,10.10
2018-12-23T23:56:18.266Z,10.10
2018-12-23T23:58:48.462Z,10.10
